Flight Track Log - Related Links

Times and Time Zones

All times are in EDT time to prevent confusion due to time zone crossing. See the KAP2826 flight status page for this flight to view local times or setup timezone preferences in your user account.

Time Position Orientation Groundspeed Altitude Reporting Facility
EDT Latitude Longitude Course Direction KTS MPH feet Rate Location/Type
Mon 09:54:04 AM 42.3667 -70.9833 124° Southeast 107 123 400  Level KA90
Mon 09:54:51 AM 42.3500 -70.9500 124° Southeast 106 122 900 667 Climbing KA90
Mon 09:55:52 AM 42.3333 -70.9167 124° Southeast 116 133 1,600 605 Climbing KA90
Mon 09:56:50 AM 42.3167 -70.8833 124° Southeast 124 143 2,100 500 Climbing KA90
Mon 09:57:52 AM 42.2833 -70.8500 144° Southeast 131 151 2,600 496 Climbing KA90
Mon 09:58:51 AM 42.2500 -70.8167 143° Southeast 129 148 3,100 536 Climbing KA90
Mon 10:00:00 AM 42.2596 -70.7784 71° East  Level FlightAware Approximate
Mon 10:00:51 AM 42.1833 -70.7667 71° East 133 153 4,200  Level KA90
Mon 10:01:51 AM 42.1667 -70.7500 143° Southeast 130 150 4,700 500 Climbing KA90
Mon 10:04:00 AM 42.1600 -70.6751 97° East  Level FlightAware Approximate
Mon 10:11:00 AM 42.1377 -70.4312 97° East  Level FlightAware Approximate
Mon 10:12:00 AM 42.1129 -70.4206 114° Southeast  Level Estimated
Mon 10:13:00 AM 42.1047 -70.3874 108° East  Level FlightAware Approximate
Mon 10:14:00 AM 42.0965 -70.3541 108° East  Level FlightAware Approximate
Mon 10:15:00 AM 42.0883 -70.3208 108° East  Level FlightAware Approximate
Mon 10:16:00 AM 42.0800 -70.2875 108° East  Level FlightAware Approximate
Mon 10:17:00 AM 42.0718 -70.2543 108° East  Level FlightAware Approximate
Mon 10:18:00 AM 42.0635 -70.2210 108° East  Level FlightAware Approximate
Mon 10:19:00 AM 42.0552 -70.1878 109° East  Level FlightAware Approximate
Mon 10:20:00 AM 42.0470 -70.1546 109° East  Level FlightAware Approximate
Mon 10:21:00 AM 42.0387 -70.1214 109° East  Level FlightAware Approximate
Mon 10:22:00 AM 42.0304 -70.0882 109° East  Level FlightAware Approximate
Mon 10:23:00 AM 42.0044 -70.0872 180° South  Level Estimated
Mon 10:24:00 AM 41.9785 -70.0837 174° South  Level FlightAware Approximate
Mon 10:25:00 AM 41.9526 -70.0803 174° South  Level FlightAware Approximate
Mon 10:26:00 AM 41.9267 -70.0768 174° South  Level FlightAware Approximate
Mon 10:27:00 AM 41.9008 -70.0733 174° South  Level FlightAware Approximate
Mon 10:28:00 AM 41.8749 -70.0699 174° South  Level FlightAware Approximate
Mon 10:29:00 AM 41.8490 -70.0664 174° South  Level FlightAware Approximate
Mon 10:30:00 AM 41.8231 -70.0630 174° South  Level FlightAware Approximate
Mon 10:31:00 AM 41.7972 -70.0595 174° South  Level FlightAware Approximate
Mon 10:32:00 AM 41.7713 -70.0561 174° South  Level FlightAware Approximate
Mon 10:33:00 AM 41.7454 -70.0526 174° South  Level FlightAware Approximate
Mon 10:34:00 AM 41.7195 -70.0492 174° South  Level FlightAware Approximate
Mon 10:35:00 AM 41.6936 -70.0457 174° South  Level FlightAware Approximate
Mon 10:36:00 AM 41.6677 -70.0423 174° South  Level FlightAware Approximate
Mon 10:37:00 AM 41.6418 -70.0389 174° South  Level FlightAware Approximate
Mon 10:38:00 AM 41.6159 -70.0354 174° South  Level FlightAware Approximate
Mon 10:39:00 AM 41.5936 -70.0346 189° South  Level FlightAware Approximate
Mon 10:40:00 AM 41.5678 -70.0398 189° South  Level FlightAware Approximate
Mon 10:41:00 AM 41.5421 -70.0449 189° South  Level FlightAware Approximate
Mon 10:42:00 AM 41.5164 -70.0500 180° South  Level FlightAware Approximate

Login

Don't have an account? Register now (free) for customized features, flight alerts, and more!